Time;durP1;ratioP1;P1;durP2;ratioP2;P2;SDS_P1;SDS_P2;PMS_P1;PMS_P2;Temp;Humidity;BMP_temperature;BMP_pressure;BME280_temperature;BME280_humidity;BME280_pressure;Samples;Min_cycle;Max_cycle;Signal;HPM_P1;HPM_P2
2022/06/23 00:01:59;;;;;;;4.80;2.28;;;18.10;99.90;;;;;;5015955;28;20072;-47
2022/06/23 00:04:30;;;;;;;2.45;1.88;;;18.10;99.90;;;;;;4998677;28;20029;-48
2022/06/23 00:07:26;;;;;;;2.25;1.90;;;18.40;99.90;;;;;;5015439;28;20389;-46
2022/06/23 00:09:53;;;;;;;2.75;2.25;;;18.60;99.90;;;;;;4996630;28;20026;-46
2022/06/23 00:12:18;;;;;;;2.60;2.05;;;18.70;99.90;;;;;;5015421;28;20018;-52
2022/06/23 00:14:48;;;;;;;2.35;2.15;;;18.50;99.90;;;;;;5015589;28;20029;-50
2022/06/23 00:17:29;;;;;;;3.80;1.80;;;18.50;99.90;;;;;;4997992;28;20021;-52
2022/06/23 00:19:58;;;;;;;2.23;2.03;;;18.40;99.90;;;;;;5015224;28;20030;-49
2022/06/23 00:22:28;;;;;;;4.18;2.30;;;18.40;99.90;;;;;;4998295;28;20327;-46
2022/06/23 00:24:57;;;;;;;3.53;2.15;;;18.20;99.90;;;;;;4998701;28;20030;-46
2022/06/23 00:27:29;;;;;;;5.03;2.50;;;18.10;99.90;;;;;;4997422;28;20084;-46
2022/06/23 00:30:00;;;;;;;3.47;2.03;;;18.10;99.90;;;;;;5015081;28;20423;-45
2022/06/23 00:32:26;;;;;;;5.33;2.40;;;18.10;99.90;;;;;;5015430;28;20052;-45
2022/06/23 00:35:05;;;;;;;4.57;2.05;;;18.00;99.90;;;;;;4997340;28;20029;-46
2022/06/23 00:37:31;;;;;;;6.53;2.67;;;17.90;99.90;;;;;;5015662;28;20080;-47
2022/06/23 00:40:07;;;;;;;6.78;2.70;;;17.90;99.90;;;;;;4997215;28;20026;-48
2022/06/23 00:42:40;;;;;;;6.38;2.80;;;18.10;99.90;;;;;;5014912;28;20036;-49
2022/06/23 00:45:11;;;;;;;5.38;2.50;;;18.30;99.90;;;;;;5014772;28;20038;-49
2022/06/23 00:47:51;;;;;;;4.63;2.40;;;18.10;99.90;;;;;;4997200;28;20037;-47
2022/06/23 00:50:25;;;;;;;3.85;2.38;;;18.20;99.90;;;;;;5014545;28;20037;-47
2022/06/23 00:53:12;;;;;;;4.55;2.35;;;18.30;99.90;;;;;;5014685;28;20077;-49
2022/06/23 00:55:49;;;;;;;4.82;2.10;;;18.30;99.90;;;;;;5014621;28;20076;-47
2022/06/23 00:58:35;;;;;;;2.78;2.17;;;18.30;99.90;;;;;;5014850;28;20029;-48
2022/06/23 01:01:37;;;;;;;4.50;2.20;;;18.20;99.90;;;;;;4997004;28;20093;-51
2022/06/23 01:04:20;;;;;;;3.05;2.42;;;18.10;99.90;;;;;;4994000;28;20038;-52
2022/06/23 01:07:07;;;;;;;2.63;2.05;;;17.90;99.90;;;;;;4997285;28;20357;-48
2022/06/23 01:09:47;;;;;;;2.25;1.98;;;17.90;99.90;;;;;;4996437;28;20483;-47
2022/06/23 01:12:22;;;;;;;4.68;2.47;;;17.90;99.90;;;;;;4997253;28;20022;-50
2022/06/23 01:14:58;;;;;;;5.85;2.70;;;17.80;99.90;;;;;;5014495;28;20040;-51
2022/06/23 01:17:31;;;;;;;3.83;2.28;;;17.80;99.90;;;;;;4996780;28;20029;-52
2022/06/23 01:20:05;;;;;;;4.38;2.17;;;17.60;99.90;;;;;;4996761;28;20029;-47
2022/06/23 01:22:49;;;;;;;6.68;2.20;;;17.70;99.90;;;;;;5014696;28;20026;-48
2022/06/23 01:26:00;;;;;;;4.05;2.28;;;17.60;99.90;;;;;;5014349;28;20030;-49
2022/06/23 01:28:30;;;;;;;7.35;3.95;;;17.60;99.90;;;;;;4994441;28;20041;-49
2022/06/23 01:31:11;;;;;;;6.65;2.45;;;17.50;99.90;;;;;;5014117;28;20030;-50
2022/06/23 01:33:39;;;;;;;6.80;2.67;;;17.30;99.90;;;;;;4996626;28;20034;-46
2022/06/23 01:36:19;;;;;;;7.65;2.40;;;17.20;99.90;;;;;;4996438;28;20484;-49
2022/06/23 01:39:12;;;;;;;5.20;2.53;;;17.20;99.90;;;;;;4997046;28;20052;-49
2022/06/23 01:41:46;;;;;;;4.45;2.30;;;17.30;99.90;;;;;;4995997;28;20174;-46
2022/06/23 01:44:11;;;;;;;3.88;2.15;;;17.30;99.90;;;;;;5013721;28;20053;-47
2022/06/23 01:46:40;;;;;;;6.32;2.67;;;17.30;99.90;;;;;;5014230;28;20060;-47
2022/06/23 01:49:15;;;;;;;3.20;2.30;;;17.40;99.90;;;;;;5013657;28;20030;-50
2022/06/23 01:51:45;;;;;;;6.15;2.80;;;17.40;99.90;;;;;;5013626;28;20068;-46
2022/06/23 01:54:20;;;;;;;4.68;2.40;;;17.30;99.90;;;;;;4996921;28;20025;-48
2022/06/23 01:57:07;;;;;;;5.55;2.28;;;17.30;99.90;;;;;;5013540;28;20072;-47
2022/06/23 01:59:57;;;;;;;4.15;3.00;;;17.20;99.90;;;;;;5013653;28;20026;-46
2022/06/23 02:02:53;;;;;;;6.43;2.78;;;17.00;99.90;;;;;;5013774;28;20025;-48
2022/06/23 02:05:33;;;;;;;6.05;2.47;;;17.10;99.90;;;;;;4996581;28;20025;-46
2022/06/23 02:08:04;;;;;;;6.97;2.63;;;17.00;99.90;;;;;;5013472;28;20493;-46
2022/06/23 02:10:55;;;;;;;5.47;2.30;;;17.00;99.90;;;;;;5013358;28;20481;-46
2022/06/23 02:13:27;;;;;;;4.77;2.53;;;16.90;99.90;;;;;;5013529;28;20389;-46
2022/06/23 02:16:02;;;;;;;6.13;2.28;;;16.90;99.90;;;;;;4995528;28;20076;-47
2022/06/23 02:18:28;;;;;;;2.88;2.00;;;16.90;99.90;;;;;;4996272;28;20030;-50
2022/06/23 02:20:56;;;;;;;3.67;2.70;;;17.10;99.90;;;;;;4995895;28;20032;-50
2022/06/23 02:23:41;;;;;;;5.15;2.97;;;17.10;99.90;;;;;;4996520;28;20107;-47
2022/06/23 02:26:15;;;;;;;4.55;2.88;;;16.80;99.90;;;;;;4995523;28;20038;-47
2022/06/23 02:29:04;;;;;;;4.53;2.90;;;16.60;99.90;;;;;;5013182;28;20030;-45
2022/06/23 02:31:39;;;;;;;6.03;2.60;;;16.70;99.90;;;;;;4986552;28;20033;-47
2022/06/23 02:34:22;;;;;;;11.60;3.20;;;16.80;99.90;;;;;;5013616;28;20018;-47
2022/06/23 02:37:17;;;;;;;5.18;2.80;;;16.90;99.90;;;;;;4996162;28;20037;-48
2022/06/23 02:39:51;;;;;;;11.80;2.63;;;16.90;99.90;;;;;;5013647;28;20026;-48
2022/06/23 02:42:34;;;;;;;11.55;3.38;;;16.90;99.90;;;;;;4995416;28;20033;-49
2022/06/23 02:45:19;;;;;;;8.48;2.83;;;16.90;99.90;;;;;;4995454;28;20502;-46
2022/06/23 02:47:57;;;;;;;6.85;2.33;;;16.70;99.90;;;;;;5013090;28;20029;-47
2022/06/23 02:50:47;;;;;;;9.70;3.08;;;16.60;99.90;;;;;;5013819;28;20030;-48
2022/06/23 02:53:39;;;;;;;6.93;2.55;;;16.90;99.90;;;;;;4997548;28;20034;-51
2022/06/23 02:56:11;;;;;;;4.20;2.83;;;17.10;99.90;;;;;;4995323;28;20022;-50
2022/06/23 02:59:17;;;;;;;3.83;2.65;;;17.20;99.90;;;;;;4995253;28;20492;-47
2022/06/23 03:02:18;;;;;;;7.80;2.55;;;17.10;99.90;;;;;;4994827;28;20469;-52
2022/06/23 03:04:55;;;;;;;8.87;2.30;;;16.70;99.90;;;;;;4946225;28;20037;-47
2022/06/23 03:07:30;;;;;;;10.13;2.85;;;16.80;99.90;;;;;;5013053;28;20511;-51
2022/06/23 03:10:18;;;;;;;4.22;2.20;;;16.80;99.90;;;;;;4995074;28;20033;-50
2022/06/23 03:12:51;;;;;;;7.55;3.30;;;16.70;99.90;;;;;;5013162;28;20054;-47
2022/06/23 03:15:31;;;;;;;6.07;2.63;;;16.60;99.90;;;;;;4996137;28;20022;-49
2022/06/23 03:18:02;;;;;;;7.87;2.90;;;16.50;99.90;;;;;;4996224;28;20018;-46
2022/06/23 03:20:31;;;;;;;14.02;3.53;;;16.40;99.90;;;;;;5012959;28;20026;-48
2022/06/23 03:23:28;;;;;;;4.35;2.35;;;16.40;99.90;;;;;;5012872;28;20101;-48
2022/06/23 03:26:06;;;;;;;5.20;2.70;;;16.50;99.90;;;;;;5012844;28;20547;-47
2022/06/23 03:28:44;;;;;;;6.28;2.75;;;16.60;99.90;;;;;;5014396;28;20032;-46
2022/06/23 03:31:34;;;;;;;7.60;2.75;;;16.50;99.90;;;;;;5016210;28;20044;-45
2022/06/23 03:34:12;;;;;;;4.88;3.40;;;16.40;99.90;;;;;;5016594;28;20064;-46
2022/06/23 03:36:46;;;;;;;4.80;2.80;;;16.30;99.90;;;;;;5016198;28;20542;-47
2022/06/23 03:42:28;;;;;;;8.05;2.47;;;16.40;99.90;;;;;;5016025;28;20037;-46
2022/06/23 03:45:21;;;;;;;8.45;2.50;;;16.50;99.90;;;;;;4994176;28;20033;-46
2022/06/23 03:48:09;;;;;;;7.85;2.38;;;16.50;99.90;;;;;;4998613;28;20393;-45
2022/06/23 03:50:47;;;;;;;9.57;2.80;;;16.60;99.90;;;;;;4998715;28;20029;-47
2022/06/23 03:53:20;;;;;;;10.85;3.08;;;16.60;99.90;;;;;;4998427;28;20037;-46
2022/06/23 03:55:54;;;;;;;10.77;3.17;;;16.80;99.90;;;;;;5015851;28;20099;-46
2022/06/23 03:58:27;;;;;;;5.18;2.40;;;16.60;99.90;;;;;;4999048;28;20029;-49
2022/06/23 04:00:55;;;;;;;4.63;3.25;;;16.80;99.90;;;;;;5015764;28;20034;-46
2022/06/23 04:03:42;;;;;;;4.38;2.70;;;16.90;99.90;;;;;;4998856;28;20022;-50
2022/06/23 04:06:14;;;;;;;20.60;4.38;;;17.10;99.90;;;;;;4998914;28;20030;-49
2022/06/23 04:08:48;;;;;;;;;;;17.40;99.90;;;;;;5016033;28;20029;-46
2022/06/23 04:14:07;;;;;;;7.40;2.72;;;17.80;99.90;;;;;;5015844;28;20080;-48
2022/06/23 04:16:34;;;;;;;10.02;2.70;;;18.00;99.90;;;;;;4998153;28;20053;-47
2022/06/23 04:19:17;;;;;;;8.95;2.88;;;18.30;99.90;;;;;;4998244;28;20022;-47
2022/06/23 04:21:46;;;;;;;8.40;2.65;;;18.60;99.90;;;;;;4998034;28;20236;-52
2022/06/23 04:24:18;;;;;;;7.63;2.90;;;18.80;99.90;;;;;;4997356;28;20022;-49
2022/06/23 04:26:48;;;;;;;9.40;2.30;;;19.00;99.90;;;;;;4997861;28;20117;-48
2022/06/23 04:29:24;;;;;;;4.72;2.40;;;19.20;99.90;;;;;;5015134;28;20026;-50
2022/06/23 04:32:01;;;;;;;6.78;2.45;;;19.40;99.90;;;;;;4997941;28;20026;-50
2022/06/23 04:34:31;;;;;;;4.97;2.88;;;19.70;99.90;;;;;;4998549;28;20026;-48
2022/06/23 04:36:57;;;;;;;6.35;2.72;;;20.00;99.90;;;;;;5015641;28;20034;-51
2022/06/23 04:39:26;;;;;;;4.20;2.60;;;20.20;99.90;;;;;;4997593;28;20041;-50
2022/06/23 04:42:05;;;;;;;3.63;2.30;;;20.40;99.90;;;;;;5015615;28;20049;-48
2022/06/23 04:44:33;;;;;;;6.47;2.65;;;20.70;99.90;;;;;;4998996;28;20113;-49
2022/06/23 04:47:07;;;;;;;5.25;2.42;;;21.00;99.90;;;;;;4997636;28;20026;-50
2022/06/23 04:49:42;;;;;;;7.47;2.80;;;21.20;99.90;;;;;;4998877;28;20030;-47
2022/06/23 04:52:20;;;;;;;2.90;2.60;;;21.40;99.90;;;;;;5015177;28;20033;-47
2022/06/23 04:54:48;;;;;;;5.53;2.80;;;21.80;99.90;;;;;;5015507;28;20053;-48
2022/06/23 04:57:20;;;;;;;6.60;3.05;;;22.00;99.90;;;;;;4997499;28;20497;-48
2022/06/23 04:59:52;;;;;;;7.32;2.95;;;22.30;99.90;;;;;;4997326;28;20029;-48
2022/06/23 05:02:29;;;;;;;5.20;2.50;;;22.40;99.90;;;;;;4997574;28;20029;-48
2022/06/23 05:05:02;;;;;;;3.97;2.35;;;22.60;99.90;;;;;;5015098;28;20104;-47
2022/06/23 05:07:42;;;;;;;3.45;2.55;;;23.00;99.90;;;;;;4997625;28;20030;-51
2022/06/23 05:10:16;;;;;;;4.63;2.40;;;23.50;99.90;;;;;;4997319;28;20080;-47
2022/06/23 05:12:47;;;;;;;6.70;3.08;;;23.90;99.90;;;;;;4997848;28;20022;-47
2022/06/23 05:15:19;;;;;;;4.85;2.63;;;24.20;99.90;;;;;;4998357;28;20021;-49
2022/06/23 05:18:15;;;;;;;10.02;2.40;;;24.10;99.90;;;;;;5015643;28;20025;-49
2022/06/23 05:20:50;;;;;;;5.43;2.90;;;24.10;99.90;;;;;;5015432;28;20026;-47
2022/06/23 05:23:22;;;;;;;3.97;2.33;;;24.30;99.90;;;;;;4997151;28;20029;-47
2022/06/23 05:25:51;;;;;;;3.95;2.45;;;24.40;99.90;;;;;;5014603;28;20061;-47
2022/06/23 05:28:29;;;;;;;6.15;3.05;;;24.80;99.90;;;;;;4997002;28;20026;-47
2022/06/23 05:30:59;;;;;;;4.45;2.70;;;25.00;99.90;;;;;;4996798;28;20120;-47
2022/06/23 05:33:32;;;;;;;4.65;3.03;;;25.30;99.90;;;;;;4996733;28;20024;-49
2022/06/23 05:36:17;;;;;;;7.40;3.40;;;25.50;99.90;;;;;;5014402;28;20022;-49
2022/06/23 05:38:56;;;;;;;5.13;2.50;;;25.80;99.90;;;;;;4997675;28;20022;-47
2022/06/23 05:41:24;;;;;;;2.97;2.30;;;26.10;99.90;;;;;;4996608;28;20133;-47
2022/06/23 05:43:54;;;;;;;4.45;2.50;;;26.20;99.90;;;;;;5014552;28;20026;-47
2022/06/23 05:46:23;;;;;;;4.63;2.40;;;26.50;99.90;;;;;;4997757;28;20034;-47
2022/06/23 05:49:01;;;;;;;4.07;2.30;;;27.00;99.90;;;;;;4996548;28;20022;-45
2022/06/23 05:51:55;;;;;;;7.63;2.80;;;27.30;99.90;;;;;;4996055;28;20040;-45
2022/06/23 05:54:30;;;;;;;3.50;2.40;;;27.80;99.90;;;;;;4990264;28;20026;-45
2022/06/23 05:57:02;;;;;;;5.30;2.50;;;28.30;99.90;;;;;;4996505;28;20373;-46
2022/06/23 05:59:49;;;;;;;5.47;2.30;;;28.70;98.40;;;;;;5014084;28;20053;-48
2022/06/23 06:02:27;;;;;;;6.00;2.38;;;29.30;97.10;;;;;;4996818;28;20030;-46
2022/06/23 06:04:56;;;;;;;4.25;2.50;;;29.80;95.80;;;;;;4996604;28;20076;-47
2022/06/23 06:07:26;;;;;;;7.95;2.65;;;29.90;94.30;;;;;;4996376;28;20341;-47
2022/06/23 06:09:54;;;;;;;3.90;2.00;;;30.00;93.70;;;;;;5014427;28;20117;-47
2022/06/23 06:12:42;;;;;;;3.83;2.05;;;30.00;93.40;;;;;;4996656;28;20038;-51
2022/06/23 06:15:25;;;;;;;5.00;2.33;;;30.50;92.10;;;;;;4996500;28;20018;-47
2022/06/23 06:18:02;;;;;;;6.97;2.08;;;31.00;91.50;;;;;;5014002;28;20025;-48
2022/06/23 06:20:28;;;;;;;2.35;2.15;;;31.20;91.20;;;;;;4996158;28;20029;-50
2022/06/23 06:23:00;;;;;;;3.70;2.10;;;31.30;87.60;;;;;;4996408;28;20413;-48
2022/06/23 06:25:30;;;;;;;3.72;2.50;;;31.10;88.50;;;;;;5013842;28;20440;-46
2022/06/23 06:28:10;;;;;;;9.43;2.00;;;30.80;88.30;;;;;;4997207;28;20064;-48
2022/06/23 06:30:40;;;;;;;5.00;2.25;;;31.00;87.10;;;;;;5014963;28;20034;-51
2022/06/23 06:33:06;;;;;;;3.65;2.47;;;31.80;87.20;;;;;;4996227;28;20022;-48
2022/06/23 06:35:37;;;;;;;3.30;1.88;;;32.40;83.60;;;;;;4996284;28;20025;-50
2022/06/23 06:38:12;;;;;;;6.70;2.50;;;33.10;83.90;;;;;;5013668;28;20503;-53
2022/06/23 06:40:40;;;;;;;3.95;2.67;;;33.20;80.70;;;;;;5013452;28;20038;-47
2022/06/23 06:43:18;;;;;;;10.90;2.65;;;33.10;80.30;;;;;;4995874;28;20061;-48
2022/06/23 06:45:44;;;;;;;7.18;2.42;;;33.20;79.70;;;;;;5013459;28;20077;-49
2022/06/23 06:48:18;;;;;;;6.80;3.38;;;33.30;79.60;;;;;;5013479;28;20030;-52
2022/06/23 06:50:47;;;;;;;5.05;3.67;;;33.60;77.80;;;;;;4996326;28;20116;-50
2022/06/23 06:53:35;;;;;;;6.75;2.83;;;33.30;78.50;;;;;;4996165;28;20025;-50
2022/06/23 06:56:27;;;;;;;9.52;2.78;;;34.00;78.90;;;;;;4996193;28;20026;-50
2022/06/23 06:59:49;;;;;;;4.85;2.58;;;34.60;76.40;;;;;;4989335;28;20041;-48
2022/06/23 07:02:30;;;;;;;5.78;3.10;;;35.40;75.60;;;;;;5013379;28;20025;-49
2022/06/23 07:05:40;;;;;;;8.00;2.78;;;35.90;75.20;;;;;;5017349;28;20033;-47
2022/06/23 07:08:24;;;;;;;4.90;2.97;;;36.40;72.00;;;;;;4999486;28;20029;-47
2022/06/23 07:10:59;;;;;;;18.73;4.18;;;36.50;71.50;;;;;;4999464;28;20080;-48
2022/06/23 07:13:40;;;;;;;6.07;3.08;;;35.60;71.80;;;;;;5000250;28;20022;-47
2022/06/23 07:16:20;;;;;;;7.05;3.05;;;35.20;75.30;;;;;;4999326;28;20032;-47
2022/06/23 07:18:48;;;;;;;7.93;3.00;;;36.00;73.60;;;;;;5016885;28;20036;-47
2022/06/23 07:21:28;;;;;;;7.40;3.17;;;36.30;72.00;;;;;;5016892;28;20064;-50
2022/06/23 07:24:21;;;;;;;10.80;4.05;;;36.90;70.50;;;;;;4999224;28;20025;-51
2022/06/23 07:27:02;;;;;;;8.57;3.47;;;37.60;69.10;;;;;;4999356;28;20034;-46
2022/06/23 07:29:43;;;;;;;7.70;4.53;;;37.90;67.90;;;;;;5016579;28;20037;-47
2022/06/23 07:32:20;;;;;;;17.75;4.10;;;37.80;67.80;;;;;;5016886;28;20026;-49
2022/06/23 07:34:58;;;;;;;9.15;3.92;;;37.50;67.40;;;;;;4999966;28;20439;-47
2022/06/23 07:37:48;;;;;;;7.75;4.40;;;37.20;68.70;;;;;;4999852;28;20107;-47
2022/06/23 07:40:16;;;;;;;7.25;3.30;;;37.00;69.10;;;;;;4999066;28;20476;-49
2022/06/23 07:42:42;;;;;;;11.52;4.70;;;37.50;69.90;;;;;;5016362;28;20022;-48
2022/06/23 07:45:22;;;;;;;17.60;5.07;;;37.80;68.50;;;;;;4999633;28;20026;-48
2022/06/23 07:47:48;;;;;;;;;;;36.70;68.60;;;;;;4999253;28;20116;-49
2022/06/23 07:50:14;;;;;;;8.63;4.97;;;35.40;70.20;;;;;;4999064;28;19976;-47
2022/06/23 07:52:41;;;;;;;10.10;4.82;;;34.50;71.10;;;;;;4998740;28;20026;-50
2022/06/23 07:55:16;;;;;;;11.82;4.78;;;34.20;72.30;;;;;;4998624;28;20029;-47
2022/06/23 07:57:42;;;;;;;6.57;4.20;;;34.20;73.80;;;;;;4998537;28;20026;-48
2022/06/23 08:00:08;;;;;;;8.85;4.50;;;35.00;72.10;;;;;;5016268;28;20036;-51
2022/06/23 08:03:00;;;;;;;7.32;4.35;;;35.60;70.00;;;;;;4999320;28;20025;-47
2022/06/23 08:05:42;;;;;;;13.10;4.70;;;35.60;70.20;;;;;;4999373;28;20026;-52
2022/06/23 08:08:14;;;;;;;11.35;4.50;;;36.30;69.00;;;;;;4998458;28;20088;-51
2022/06/23 08:10:40;;;;;;;7.95;4.30;;;35.40;69.50;;;;;;4998204;28;20026;-49
2022/06/23 08:13:21;;;;;;;6.45;4.32;;;34.90;71.00;;;;;;4998315;28;20018;-46
2022/06/23 08:18:58;;;;;;;8.98;4.03;;;35.70;69.60;;;;;;5016252;28;20566;-49
2022/06/23 08:21:28;;;;;;;8.10;4.18;;;36.30;68.90;;;;;;5016396;28;20029;-47
2022/06/23 08:24:11;;;;;;;6.65;4.47;;;36.50;68.00;;;;;;4998333;28;20037;-50
2022/06/23 08:26:41;;;;;;;8.95;4.47;;;35.90;67.70;;;;;;5015746;28;20038;-49
2022/06/23 08:29:12;;;;;;;8.55;4.07;;;35.60;68.60;;;;;;4997991;28;20104;-47
2022/06/23 08:31:38;;;;;;;6.13;3.83;;;35.30;69.80;;;;;;5015560;28;20066;-47
2022/06/23 08:34:05;;;;;;;9.65;4.43;;;35.30;69.50;;;;;;4998210;28;20049;-46
2022/06/23 08:36:55;;;;;;;4.32;3.58;;;34.30;70.30;;;;;;5015441;28;20033;-49
2022/06/23 08:39:27;;;;;;;6.40;4.00;;;34.70;71.20;;;;;;5015399;28;20032;-46
2022/06/23 08:42:02;;;;;;;8.40;4.28;;;35.50;69.30;;;;;;4997749;28;20091;-48
2022/06/23 08:44:51;;;;;;;8.95;3.63;;;36.30;68.00;;;;;;5015439;28;20484;-48
2022/06/23 08:47:29;;;;;;;7.82;3.28;;;37.40;67.10;;;;;;4997811;28;20025;-47
2022/06/23 08:50:00;;;;;;;6.03;3.55;;;38.90;64.10;;;;;;4997520;28;20374;-48
2022/06/23 08:52:43;;;;;;;8.38;3.92;;;40.10;62.20;;;;;;4997545;28;20113;-53
2022/06/23 08:55:20;;;;;;;8.13;3.90;;;40.10;62.10;;;;;;5015252;28;20029;-47
2022/06/23 08:57:46;;;;;;;11.52;3.75;;;39.70;61.20;;;;;;4998082;28;20076;-50
2022/06/23 09:00:24;;;;;;;8.85;4.32;;;39.20;61.30;;;;;;5014962;28;20112;-48
2022/06/23 09:03:14;;;;;;;9.88;4.13;;;38.70;61.20;;;;;;4997631;28;20061;-48
2022/06/23 09:05:53;;;;;;;9.77;4.00;;;38.90;61.20;;;;;;5015227;28;20109;-50
2022/06/23 09:08:32;;;;;;;10.73;3.20;;;38.00;62.10;;;;;;5015497;28;20057;-47
2022/06/23 09:11:13;;;;;;;9.50;3.75;;;37.10;63.80;;;;;;5015184;28;20032;-48
2022/06/23 09:13:53;;;;;;;6.60;4.07;;;37.70;62.90;;;;;;4997853;28;20029;-54
2022/06/23 09:16:22;;;;;;;6.55;3.50;;;38.20;61.80;;;;;;4997234;28;20025;-48
2022/06/23 09:18:53;;;;;;;6.95;3.15;;;37.60;61.30;;;;;;4997094;28;20568;-50
2022/06/23 09:21:19;;;;;;;9.13;3.90;;;36.90;63.40;;;;;;5014509;28;20087;-48
2022/06/23 09:23:57;;;;;;;7.45;5.07;;;36.40;62.50;;;;;;5014543;28;20477;-53
2022/06/23 09:26:37;;;;;;;6.80;4.03;;;37.10;61.50;;;;;;4997175;28;20037;-48
2022/06/23 09:29:14;;;;;;;7.45;3.65;;;37.60;61.00;;;;;;4997003;28;20056;-49
2022/06/23 09:31:40;;;;;;;8.00;3.90;;;37.80;61.40;;;;;;4996822;28;20053;-54
2022/06/23 09:34:14;;;;;;;9.40;3.30;;;37.90;61.20;;;;;;5014613;28;20103;-53
2022/06/23 09:37:05;;;;;;;7.40;3.70;;;38.80;62.00;;;;;;4997124;28;20053;-49
2022/06/23 09:39:52;;;;;;;3.80;3.10;;;38.70;60.40;;;;;;5014268;28;20026;-49
2022/06/23 09:42:35;;;;;;;8.23;3.28;;;38.70;58.50;;;;;;5014342;28;20029;-52
2022/06/23 09:45:39;;;;;;;7.50;3.38;;;38.00;59.70;;;;;;5014460;28;20026;-53
2022/06/23 09:48:19;;;;;;;8.98;3.97;;;37.20;59.90;;;;;;4996700;28;20030;-50
2022/06/23 09:51:03;;;;;;;6.45;3.38;;;37.20;61.80;;;;;;4996733;28;20032;-55
2022/06/23 09:54:06;;;;;;;5.43;3.13;;;39.10;60.00;;;;;;4997676;28;20026;-48
2022/06/23 09:56:53;;;;;;;4.35;3.53;;;38.70;59.40;;;;;;4996378;28;20097;-49
2022/06/23 09:59:44;;;;;;;8.32;4.00;;;38.20;60.10;;;;;;5014052;28;20029;-51
2022/06/23 10:02:31;;;;;;;6.53;3.17;;;37.90;60.30;;;;;;4996217;28;20034;-49
2022/06/23 10:05:12;;;;;;;7.30;3.88;;;38.00;60.90;;;;;;4997093;28;20022;-49
2022/06/23 10:07:56;;;;;;;7.07;3.38;;;37.20;61.10;;;;;;5013938;28;20022;-48
2022/06/23 10:10:49;;;;;;;8.65;3.38;;;37.00;60.50;;;;;;4996649;28;20025;-48
2022/06/23 10:13:26;;;;;;;4.78;3.30;;;37.10;62.80;;;;;;5013783;28;20017;-53
2022/06/23 10:16:05;;;;;;;8.80;3.25;;;38.90;59.70;;;;;;4996179;28;20018;-55
2022/06/23 10:18:34;;;;;;;4.97;2.97;;;39.90;59.00;;;;;;4996972;28;20050;-52
2022/06/23 10:21:18;;;;;;;8.68;3.20;;;39.30;58.20;;;;;;4996131;28;20025;-52
2022/06/23 10:23:52;;;;;;;8.10;3.78;;;38.00;59.70;;;;;;5013633;28;20029;-47
2022/06/23 10:26:27;;;;;;;4.85;3.50;;;37.60;60.30;;;;;;4996082;28;20033;-48
2022/06/23 10:29:27;;;;;;;8.65;4.05;;;37.20;61.10;;;;;;4996057;28;20029;-47
2022/06/23 10:32:20;;;;;;;6.53;3.38;;;36.50;62.80;;;;;;5013632;28;20030;-47
2022/06/23 10:35:13;;;;;;;5.72;3.10;;;36.50;62.80;;;;;;5013862;28;20065;-49
2022/06/23 10:37:59;;;;;;;3.92;3.10;;;36.90;62.40;;;;;;5015676;28;20018;-52
2022/06/23 10:40:43;;;;;;;6.10;3.50;;;36.90;61.00;;;;;;5003187;28;20029;-49
2022/06/23 10:43:12;;;;;;;7.85;3.53;;;35.50;63.30;;;;;;5020029;28;20056;-47
2022/06/23 10:46:09;;;;;;;5.05;3.63;;;34.70;65.50;;;;;;5002575;28;20022;-54
2022/06/23 10:48:53;;;;;;;7.00;3.53;;;34.20;66.20;;;;;;5002433;28;20018;-51
2022/06/23 10:51:41;;;;;;;4.13;3.38;;;34.10;65.00;;;;;;5002122;28;20499;-50
2022/06/23 10:54:16;;;;;;;7.70;3.70;;;33.50;65.70;;;;;;5020027;28;20035;-53
2022/06/23 10:56:53;;;;;;;5.18;3.65;;;33.20;66.70;;;;;;5002310;28;20091;-48
2022/06/23 10:59:49;;;;;;;7.65;3.35;;;32.60;67.60;;;;;;5019910;28;20021;-50
2022/06/23 11:02:46;;;;;;;4.30;3.58;;;32.10;68.10;;;;;;5003347;28;20113;-50
2022/06/23 11:05:49;;;;;;;7.18;3.20;;;32.00;69.00;;;;;;5002304;28;20026;-48
2022/06/23 11:08:20;;;;;;;6.15;3.55;;;32.10;69.40;;;;;;5020308;28;20052;-47
2022/06/23 11:11:31;;;;;;;6.00;3.15;;;32.10;68.70;;;;;;5002381;28;20030;-47
2022/06/23 11:14:05;;;;;;;;;;;32.00;70.10;;;;;;4994145;28;20092;-48
2022/06/23 11:16:43;;;;;;;4.05;2.95;;;31.80;69.20;;;;;;5019980;28;19909;-49
2022/06/23 11:19:23;;;;;;;6.35;3.50;;;31.60;69.80;;;;;;5002644;28;20017;-47
2022/06/23 11:22:16;;;;;;;6.20;3.53;;;31.80;69.90;;;;;;5021856;28;20026;-46
2022/06/23 11:24:59;;;;;;;6.43;3.50;;;31.70;70.20;;;;;;5002043;28;20034;-48
2022/06/23 11:27:34;;;;;;;4.00;3.25;;;31.60;70.20;;;;;;5019940;28;20022;-50
2022/06/23 11:30:14;;;;;;;6.30;3.40;;;31.60;72.40;;;;;;5019467;28;20022;-46
2022/06/23 11:32:44;;;;;;;;;;;31.10;70.20;;;;;;5003560;28;20026;-50
2022/06/23 11:35:28;;;;;;;6.15;3.47;;;30.60;72.10;;;;;;5019569;28;19912;-51
2022/06/23 11:38:27;;;;;;;6.22;3.80;;;30.40;71.80;;;;;;5001809;28;20029;-55
2022/06/23 11:40:52;;;;;;;6.53;3.83;;;30.40;72.50;;;;;;5019476;28;20030;-47
2022/06/23 11:43:38;;;;;;;5.53;3.75;;;30.40;73.80;;;;;;5001948;28;20026;-47
2022/06/23 11:46:40;;;;;;;8.30;3.85;;;30.50;73.20;;;;;;5001824;28;20030;-48
2022/06/23 11:49:27;;;;;;;5.28;3.90;;;30.60;73.60;;;;;;5018812;28;20032;-47
2022/06/23 11:52:23;;;;;;;4.20;3.47;;;30.70;72.80;;;;;;4998815;28;20057;-47
2022/06/23 11:55:08;;;;;;;5.63;3.35;;;30.70;72.50;;;;;;5016630;28;20022;-46
2022/06/23 11:57:43;;;;;;;5.60;3.78;;;31.00;72.60;;;;;;4998638;28;20071;-50
2022/06/23 12:00:18;;;;;;;6.68;4.00;;;31.20;71.80;;;;;;5016123;28;20018;-50
2022/06/23 12:03:12;;;;;;;4.97;3.75;;;31.30;73.00;;;;;;4998895;28;20053;-50
2022/06/23 12:05:44;;;;;;;9.68;4.07;;;31.00;72.10;;;;;;4989696;28;20042;-52
2022/06/23 12:08:22;;;;;;;6.78;4.00;;;30.50;73.10;;;;;;5016125;28;20029;-52
2022/06/23 12:10:48;;;;;;;3.88;3.50;;;30.40;74.10;;;;;;4998568;28;20026;-49
2022/06/23 12:13:14;;;;;;;5.90;4.40;;;30.50;74.70;;;;;;4998428;28;20036;-47
2022/06/23 12:15:43;;;;;;;7.15;3.90;;;30.30;73.70;;;;;;4998305;28;20022;-47
2022/06/23 12:18:38;;;;;;;5.63;3.83;;;30.30;73.80;;;;;;5015906;28;20033;-48
2022/06/23 12:21:30;;;;;;;5.85;3.92;;;30.50;73.40;;;;;;4999089;28;20434;-48
2022/06/23 12:24:20;;;;;;;5.38;4.10;;;30.70;73.80;;;;;;4998540;28;20029;-47
2022/06/23 12:27:00;;;;;;;7.03;3.80;;;30.80;73.00;;;;;;4991131;28;20042;-49
2022/06/23 12:29:50;;;;;;;5.93;3.43;;;30.90;73.90;;;;;;4998777;28;20281;-49
2022/06/23 12:32:17;;;;;;;11.18;4.00;;;30.70;73.30;;;;;;5004966;28;20038;-50
2022/06/23 12:35:10;;;;;;;6.32;4.03;;;30.60;76.40;;;;;;4998025;28;20026;-47
2022/06/23 12:38:02;;;;;;;5.93;3.88;;;30.80;74.70;;;;;;5015587;28;20022;-50
2022/06/23 12:40:49;;;;;;;8.48;4.32;;;30.80;73.50;;;;;;4997809;28;20029;-47
2022/06/23 12:43:30;;;;;;;7.88;3.58;;;30.90;72.40;;;;;;4997845;28;20503;-46
2022/06/23 12:46:13;;;;;;;;;;;30.80;72.80;;;;;;5016139;28;20037;-47
2022/06/23 12:49:15;;;;;;;4.70;3.20;;;30.50;72.70;;;;;;4998523;28;19909;-46
2022/06/23 12:51:58;;;;;;;6.63;3.20;;;30.30;71.60;;;;;;4998088;28;20022;-47
2022/06/23 12:54:36;;;;;;;6.13;3.60;;;30.00;72.50;;;;;;4997645;28;20030;-51
2022/06/23 12:57:36;;;;;;;7.35;3.45;;;29.80;72.60;;;;;;4997900;28;20018;-48
2022/06/23 13:00:04;;;;;;;4.60;3.45;;;29.70;73.70;;;;;;4998040;28;20495;-49
2022/06/23 13:02:41;;;;;;;3.83;3.42;;;29.80;73.10;;;;;;4997385;28;20033;-47
2022/06/23 13:05:13;;;;;;;9.50;3.53;;;30.00;72.90;;;;;;4998304;28;20030;-49
2022/06/23 13:07:47;;;;;;;7.25;3.13;;;30.10;73.20;;;;;;4997376;28;20549;-50
2022/06/23 13:10:36;;;;;;;5.85;2.78;;;30.30;72.40;;;;;;5014726;28;20022;-48
2022/06/23 13:13:10;;;;;;;5.10;3.30;;;30.50;72.50;;;;;;5014843;28;20022;-47
2022/06/23 13:16:10;;;;;;;6.50;2.92;;;30.70;71.60;;;;;;4998110;28;20021;-48
2022/06/23 13:18:44;;;;;;;9.63;3.30;;;30.90;72.70;;;;;;5015218;28;20021;-48
2022/06/23 13:21:35;;;;;;;3.15;2.45;;;31.00;72.90;;;;;;4997134;28;20029;-48
2022/06/23 13:24:19;;;;;;;10.27;3.08;;;31.00;72.20;;;;;;4997181;28;20084;-46
2022/06/23 13:26:57;;;;;;;8.88;3.58;;;30.90;71.60;;;;;;5014462;28;20519;-51
2022/06/23 13:29:27;;;;;;;7.55;3.70;;;30.60;71.70;;;;;;5014709;28;20108;-50
2022/06/23 13:32:34;;;;;;;5.70;2.88;;;30.40;70.70;;;;;;5015477;28;20396;-48
2022/06/23 13:35:13;;;;;;;8.32;3.00;;;30.30;72.50;;;;;;4996379;28;20030;-49
2022/06/23 13:37:49;;;;;;;5.65;3.17;;;30.30;74.70;;;;;;4996959;28;20057;-50
2022/06/23 13:40:19;;;;;;;6.90;3.47;;;30.40;73.40;;;;;;4996865;28;20030;-48
2022/06/23 13:42:56;;;;;;;5.03;2.83;;;30.40;72.90;;;;;;5015417;28;20026;-48
2022/06/23 13:45:37;;;;;;;4.70;2.83;;;30.60;70.50;;;;;;5014499;28;20036;-47
2022/06/23 13:48:20;;;;;;;5.57;2.72;;;30.30;70.30;;;;;;5014181;28;20080;-46
2022/06/23 13:50:57;;;;;;;8.95;3.20;;;30.20;70.50;;;;;;4996590;28;20026;-46
2022/06/23 13:53:31;;;;;;;6.20;3.10;;;30.30;72.70;;;;;;5014181;28;20026;-48
2022/06/23 13:56:21;;;;;;;3.83;2.83;;;30.50;73.10;;;;;;5014093;28;20473;-47
2022/06/23 13:58:53;;;;;;;6.40;2.78;;;30.70;73.40;;;;;;4996399;28;20025;-46